createdAt,value
2018-04-15T00:00:49.904Z,8.66
2018-04-15T00:01:58.741Z,8.58
2018-04-15T00:03:07.842Z,8.58
2018-04-15T00:04:16.673Z,8.62
2018-04-15T00:05:25.503Z,8.56
2018-04-15T00:06:34.482Z,8.44
2018-04-15T00:07:43.316Z,8.45
2018-04-15T00:08:52.146Z,8.45
2018-04-15T00:10:00.978Z,8.44
2018-04-15T00:11:09.810Z,8.41
2018-04-15T00:12:18.645Z,8.45
2018-04-15T00:13:27.473Z,8.44
2018-04-15T00:14:36.303Z,8.41
2018-04-15T00:15:45.687Z,8.34
2018-04-15T00:16:55.068Z,8.36
2018-04-15T00:18:03.902Z,8.36
2018-04-15T00:19:12.735Z,8.28
2018-04-15T00:20:21.566Z,8.26
2018-04-15T00:21:30.398Z,8.22
2018-04-15T00:22:39.500Z,8.18
2018-04-15T00:23:48.330Z,8.18
2018-04-15T00:24:57.163Z,8.18
2018-04-15T00:26:06.267Z,8.19
2018-04-15T00:27:15.096Z,8.15
2018-04-15T00:28:23.924Z,8.16
2018-04-15T00:29:33.054Z,8.16
2018-04-15T00:30:41.885Z,8.1
2018-04-15T00:31:50.717Z,8.11
2018-04-15T00:32:59.546Z,8.12
2018-04-15T00:34:08.376Z,8.08
2018-04-15T00:35:17.680Z,8.07
2018-04-15T00:36:27.066Z,8.08
2018-04-15T00:37:36.179Z,8.1
2018-04-15T00:38:45.011Z,8.07
2018-04-15T00:39:53.840Z,8.08
2018-04-15T00:41:02.918Z,8.1
2018-04-15T00:42:11.748Z,8.07
2018-04-15T00:43:20.576Z,8.08
2018-04-15T00:44:29.405Z,8.02
2018-04-15T00:45:38.237Z,8.08
2018-04-15T00:46:47.217Z,8.05
2018-04-15T00:47:56.320Z,8.08
2018-04-15T00:49:05.156Z,7.98
2018-04-15T00:50:13.984Z,7.92
2018-04-15T00:51:22.814Z,7.92
2018-04-15T00:52:32.237Z,8.01
2018-04-15T00:53:41.340Z,7.97
2018-04-15T00:54:50.171Z,7.97
2018-04-15T00:55:59.001Z,7.98
2018-04-15T00:57:07.832Z,7.83
2018-04-15T00:58:16.659Z,7.83
2018-04-15T00:59:25.495Z,7.85
2018-04-15T01:00:34.317Z,7.87
2018-04-15T01:01:43.422Z,7.95
2018-04-15T01:02:52.255Z,7.9
2018-04-15T01:04:01.662Z,7.85
2018-04-15T01:05:10.767Z,7.89
2018-04-15T01:06:19.598Z,7.89
2018-04-15T01:07:28.433Z,7.89
2018-04-15T01:08:37.818Z,7.89
2018-04-15T01:09:46.745Z,7.89
2018-04-15T01:10:56.128Z,7.9
2018-04-15T01:12:04.955Z,7.87
2018-04-15T01:13:13.786Z,7.93
2018-04-15T01:14:22.620Z,7.9
2018-04-15T01:15:31.598Z,7.85
2018-04-15T01:16:40.427Z,7.86
2018-04-15T01:17:49.259Z,7.87
2018-04-15T01:18:58.089Z,7.89
2018-04-15T01:20:06.940Z,7.86
2018-04-15T01:21:15.779Z,7.82
2018-04-15T01:22:24.879Z,7.83
2018-04-15T01:23:33.708Z,7.82
2018-04-15T01:24:42.809Z,7.8
2018-04-15T01:25:51.636Z,7.8
2018-04-15T01:27:00.568Z,7.85
2018-04-15T01:28:09.400Z,7.83
2018-04-15T01:29:18.236Z,7.82
2018-04-15T01:30:27.073Z,7.83
2018-04-15T01:31:36.177Z,7.82
2018-04-15T01:32:45.055Z,7.83
2018-04-15T01:33:53.881Z,7.83
2018-04-15T01:35:02.711Z,7.83
2018-04-15T01:36:11.544Z,7.85
2018-04-15T01:37:20.373Z,7.83
2018-04-15T01:38:29.352Z,7.87
2018-04-15T01:39:38.742Z,7.85
2018-04-15T01:40:47.572Z,7.86
2018-04-15T01:41:56.402Z,7.89
2018-04-15T01:43:05.228Z,7.87
2018-04-15T01:44:14.256Z,7.85
2018-04-15T01:45:23.082Z,7.83
2018-04-15T01:46:31.912Z,7.83
2018-04-15T01:47:40.744Z,7.86
2018-04-15T01:48:49.575Z,7.86
2018-04-15T01:49:58.702Z,7.87
2018-04-15T01:51:07.533Z,7.9
2018-04-15T01:52:16.360Z,7.89
2018-04-15T01:53:25.185Z,7.83
2018-04-15T01:54:34.016Z,7.8
2018-04-15T01:55:43.274Z,7.86
2018-04-15T01:56:52.385Z,7.69
2018-04-15T01:58:01.215Z,7.64
2018-04-15T01:59:10.044Z,7.74
2018-04-15T02:00:19.423Z,7.67
2018-04-15T02:01:28.455Z,7.64
2018-04-15T02:02:37.285Z,7.77
2018-04-15T02:03:46.112Z,7.72
2018-04-15T02:04:54.944Z,7.72
2018-04-15T02:06:03.769Z,7.69
2018-04-15T02:07:12.749Z,7.72
2018-04-15T02:08:21.856Z,7.85
2018-04-15T02:09:30.688Z,7.8
2018-04-15T02:10:39.790Z,7.8
2018-04-15T02:11:48.671Z,7.75
2018-04-15T02:12:57.605Z,7.77
2018-04-15T02:14:06.996Z,7.72
2018-04-15T02:15:15.825Z,7.69
2018-04-15T02:16:24.654Z,7.75
2018-04-15T02:17:33.484Z,7.79
2018-04-15T02:18:42.612Z,7.77
2018-04-15T02:19:51.442Z,7.79
2018-04-15T02:21:00.553Z,7.8
2018-04-15T02:22:09.386Z,7.87
2018-04-15T02:23:18.216Z,7.77
2018-04-15T02:24:27.477Z,7.79
2018-04-15T02:25:36.303Z,7.82
2018-04-15T02:26:45.129Z,7.82
2018-04-15T02:27:53.962Z,7.83
2018-04-15T02:29:02.797Z,7.87
2018-04-15T02:30:11.996Z,7.82
2018-04-15T02:31:20.829Z,7.86
2018-04-15T02:32:29.938Z,7.89
2018-04-15T02:33:38.768Z,7.82
2018-04-15T02:34:47.598Z,7.92
2018-04-15T02:35:56.639Z,7.85
2018-04-15T02:37:05.745Z,7.85
2018-04-15T02:38:14.857Z,7.85
2018-04-15T02:39:23.968Z,7.92
2018-04-15T02:40:32.800Z,7.9
2018-04-15T02:41:41.954Z,7.9
2018-04-15T02:42:51.061Z,7.93
2018-04-15T02:44:00.451Z,7.87
2018-04-15T02:45:09.841Z,7.87
2018-04-15T02:46:18.966Z,7.87
2018-04-15T02:47:27.947Z,7.85
2018-04-15T02:48:36.773Z,7.85
2018-04-15T02:49:45.892Z,7.87
2018-04-15T02:50:55.008Z,8
2018-04-15T02:52:04.117Z,7.95
2018-04-15T02:53:13.376Z,7.92
2018-04-15T02:54:22.488Z,8.02
2018-04-15T02:55:31.324Z,7.86
2018-04-15T02:56:40.427Z,8.01
2018-04-15T02:57:49.260Z,7.98
2018-04-15T02:58:58.689Z,7.97
2018-04-15T03:00:07.521Z,7.97
2018-04-15T03:01:16.628Z,7.92
2018-04-15T03:02:25.732Z,8.04
2018-04-15T03:03:34.564Z,8
2018-04-15T03:04:43.736Z,8.01
2018-04-15T03:05:52.905Z,7.93
2018-04-15T03:07:01.677Z,7.83
2018-04-15T03:08:10.809Z,7.89
2018-04-15T03:09:19.913Z,7.93
2018-04-15T03:10:29.033Z,7.87
2018-04-15T03:11:38.127Z,7.93
2018-04-15T03:12:46.958Z,7.95
2018-04-15T03:13:56.066Z,7.97
2018-04-15T03:15:05.169Z,8.01
2018-04-15T03:16:14.002Z,8.01
2018-04-15T03:17:23.105Z,8.01
2018-04-15T03:18:31.932Z,8.01
2018-04-15T03:19:40.763Z,8.01
2018-04-15T03:20:49.592Z,8
2018-04-15T03:21:58.730Z,7.97
2018-04-15T03:23:07.835Z,7.97
2018-04-15T03:24:16.663Z,7.93
2018-04-15T03:25:25.772Z,7.97
2018-04-15T03:26:34.599Z,8.02
2018-04-15T03:27:43.637Z,7.97
2018-04-15T03:28:52.468Z,8.01
2018-04-15T03:30:01.300Z,8.01
2018-04-15T03:31:10.136Z,7.97
2018-04-15T03:32:19.527Z,7.98
2018-04-15T03:33:28.508Z,8.04
2018-04-15T03:34:37.342Z,7.98
2018-04-15T03:35:46.168Z,7.98
2018-04-15T03:36:55.000Z,8.02
2018-04-15T03:38:04.108Z,8.11
2018-04-15T03:39:13.259Z,8.1
2018-04-15T03:40:22.090Z,8.02
2018-04-15T03:41:31.478Z,8
2018-04-15T03:42:40.307Z,7.97
2018-04-15T03:43:49.149Z,8.07
2018-04-15T03:44:58.418Z,8.04
2018-04-15T03:46:07.524Z,8.1
2018-04-15T03:47:16.628Z,8.08
2018-04-15T03:48:25.459Z,8.1
2018-04-15T03:49:34.291Z,8.1
2018-04-15T03:50:43.122Z,8.19
2018-04-15T03:51:52.231Z,8.1
2018-04-15T03:53:01.063Z,8.11
2018-04-15T03:54:09.893Z,8.12
2018-04-15T03:55:18.728Z,8.16
2018-04-15T03:56:27.554Z,8.11
2018-04-15T03:57:36.657Z,8.19
2018-04-15T03:58:45.488Z,8.12
2018-04-15T03:59:54.319Z,8.12
2018-04-15T04:01:03.148Z,8.2
2018-04-15T04:02:12.127Z,8.11
2018-04-15T04:03:21.230Z,8.16
2018-04-15T04:04:30.109Z,8.15
2018-04-15T04:05:39.215Z,8.15
2018-04-15T04:06:48.043Z,8.18
2018-04-15T04:07:56.875Z,8.18
2018-04-15T04:09:06.254Z,8.16
2018-04-15T04:10:15.083Z,8.19
2018-04-15T04:11:23.911Z,8.22
2018-04-15T04:12:32.744Z,8.23
2018-04-15T04:13:41.906Z,8.23
2018-04-15T04:14:50.741Z,8.26
2018-04-15T04:15:59.569Z,8.23
2018-04-15T04:17:08.404Z,8.25
2018-04-15T04:18:17.231Z,8.3
2018-04-15T04:19:26.092Z,8.26
2018-04-15T04:20:34.896Z,8.4
2018-04-15T04:21:43.725Z,8.34
2018-04-15T04:22:52.552Z,8.29
2018-04-15T04:24:01.659Z,8.36
2018-04-15T04:25:10.767Z,8.33
2018-04-15T04:26:19.599Z,8.36
2018-04-15T04:27:28.704Z,8.33
2018-04-15T04:28:37.547Z,8.3
2018-04-15T04:29:46.368Z,8.36
2018-04-15T04:30:55.192Z,8.3
2018-04-15T04:32:04.020Z,8.36
2018-04-15T04:33:12.851Z,8.36
2018-04-15T04:34:21.682Z,8.29
2018-04-15T04:35:31.064Z,8.36
2018-04-15T04:36:39.948Z,8.34
2018-04-15T04:37:49.330Z,8.33
2018-04-15T04:38:58.164Z,8.36
2018-04-15T04:40:06.991Z,8.33
2018-04-15T04:41:15.822Z,8.37
2018-04-15T04:42:24.651Z,8.36
2018-04-15T04:43:33.482Z,8.36
2018-04-15T04:44:42.590Z,8.5
2018-04-15T04:45:51.701Z,8.4
2018-04-15T04:47:00.534Z,8.41
2018-04-15T04:48:09.368Z,8.34
2018-04-15T04:49:18.200Z,8.43
2018-04-15T04:50:27.030Z,8.4
2018-04-15T04:51:35.862Z,8.43
2018-04-15T04:52:44.694Z,8.38
2018-04-15T04:53:53.571Z,8.44
2018-04-15T04:55:02.403Z,8.37
2018-04-15T04:56:11.231Z,8.45
2018-04-15T04:57:20.061Z,8.44
2018-04-15T04:58:28.892Z,8.43
2018-04-15T04:59:38.296Z,8.47
2018-04-15T05:00:47.406Z,8.52
2018-04-15T05:01:56.239Z,8.47
2018-04-15T05:03:05.066Z,8.48
2018-04-15T05:04:13.898Z,8.55
2018-04-15T05:05:23.454Z,8.58
2018-04-15T05:06:32.285Z,8.61
2018-04-15T05:07:41.142Z,8.52
2018-04-15T05:08:50.218Z,8.59
2018-04-15T05:09:59.050Z,8.61
2018-04-15T05:11:08.200Z,8.59
2018-04-15T05:12:17.029Z,8.59
2018-04-15T05:13:25.863Z,8.63
2018-04-15T05:14:34.695Z,8.62
2018-04-15T05:15:43.525Z,8.65
2018-04-15T05:16:52.452Z,8.73
2018-04-15T05:18:01.283Z,8.62
2018-04-15T05:19:10.114Z,8.68
2018-04-15T05:20:18.945Z,8.63
2018-04-15T05:21:27.779Z,8.76
2018-04-15T05:22:36.756Z,8.7
2018-04-15T05:23:45.588Z,8.61
2018-04-15T05:24:54.422Z,8.63
2018-04-15T05:26:03.253Z,8.59
2018-04-15T05:27:12.085Z,8.65
2018-04-15T05:28:20.967Z,8.63
2018-04-15T05:29:29.800Z,8.61
2018-04-15T05:30:38.634Z,8.63
2018-04-15T05:31:47.463Z,8.73
2018-04-15T05:32:56.573Z,8.59
2018-04-15T05:34:05.504Z,8.65
2018-04-15T05:35:14.604Z,8.63
2018-04-15T05:36:23.440Z,8.73
2018-04-15T05:37:32.271Z,8.74
2018-04-15T05:38:41.379Z,8.77
2018-04-15T05:39:50.360Z,8.74
2018-04-15T05:40:59.464Z,8.79
2018-04-15T05:42:08.297Z,8.66
2018-04-15T05:43:17.131Z,8.59
2018-04-15T05:44:25.963Z,8.76
2018-04-15T05:45:34.793Z,8.76
2018-04-15T05:46:43.622Z,8.73
2018-04-15T05:47:52.454Z,8.77
2018-04-15T05:49:01.286Z,8.66
2018-04-15T05:50:10.117Z,8.76
2018-04-15T05:51:18.950Z,8.74
2018-04-15T05:52:28.057Z,8.76
2018-04-15T05:53:36.887Z,8.77
2018-04-15T05:54:45.722Z,8.71
2018-04-15T05:55:54.553Z,8.68
2018-04-15T05:57:03.660Z,8.74
2018-04-15T05:58:12.496Z,8.76
2018-04-15T05:59:21.608Z,8.77
2018-04-15T06:00:30.730Z,8.74
2018-04-15T06:01:39.569Z,8.77
2018-04-15T06:02:48.675Z,8.76
2018-04-15T06:03:57.510Z,8.84
2018-04-15T06:05:06.341Z,8.91
2018-04-15T06:06:15.175Z,8.86
2018-04-15T06:07:24.011Z,8.79
2018-04-15T06:08:33.113Z,8.86
2018-04-15T06:09:41.989Z,8.81
2018-04-15T06:10:50.820Z,8.87
2018-04-15T06:11:59.650Z,8.84
2018-04-15T06:13:09.047Z,8.91
2018-04-15T06:14:17.877Z,8.92
2018-04-15T06:15:26.984Z,8.94
2018-04-15T06:16:35.816Z,8.99
2018-04-15T06:17:44.649Z,8.87
2018-04-15T06:18:53.482Z,8.96
2018-04-15T06:20:02.312Z,8.96
2018-04-15T06:21:11.144Z,8.92
2018-04-15T06:22:20.247Z,8.94
2018-04-15T06:23:29.075Z,8.96
2018-04-15T06:24:38.272Z,8.99
2018-04-15T06:25:47.144Z,8.95
2018-04-15T06:26:55.975Z,8.96
2018-04-15T06:28:05.359Z,8.94
2018-04-15T06:29:14.189Z,8.96
2018-04-15T06:30:23.020Z,8.99
2018-04-15T06:31:31.854Z,9.02
2018-04-15T06:32:40.686Z,9.01
2018-04-15T06:33:49.515Z,9.11
2018-04-15T06:34:58.623Z,9.11
2018-04-15T06:36:07.454Z,9.05
2018-04-15T06:37:16.384Z,9.08
2018-04-15T06:38:25.215Z,9.1
2018-04-15T06:39:34.321Z,9.1
2018-04-15T06:40:43.427Z,9.13
2018-04-15T06:41:52.259Z,9.13
2018-04-15T06:43:01.389Z,9.14
2018-04-15T06:44:10.220Z,9.11
2018-04-15T06:45:19.419Z,9.21
2018-04-15T06:46:28.529Z,9.13
2018-04-15T06:47:37.637Z,9.23
2018-04-15T06:48:46.767Z,9.17
2018-04-15T06:49:55.875Z,9.11
2018-04-15T06:51:04.704Z,9.24
2018-04-15T06:52:13.536Z,9.2
2018-04-15T06:53:22.365Z,9.23
2018-04-15T06:54:31.346Z,9.18
2018-04-15T06:55:40.216Z,9.23
2018-04-15T06:56:49.013Z,9.2
2018-04-15T06:57:57.838Z,9.23
2018-04-15T06:59:06.670Z,9.21
2018-04-15T07:00:16.122Z,9.29
2018-04-15T07:01:24.955Z,9.24
2018-04-15T07:02:33.786Z,9.28
2018-04-15T07:03:42.621Z,9.31
2018-04-15T07:04:51.455Z,9.2
2018-04-15T07:06:00.291Z,9.1
2018-04-15T07:07:09.397Z,9.13
2018-04-15T07:08:18.229Z,9.23
2018-04-15T07:09:27.059Z,9.21
2018-04-15T07:10:35.893Z,9.32
2018-04-15T07:11:44.730Z,9.29
2018-04-15T07:12:53.564Z,9.28
2018-04-15T07:14:02.945Z,9.32
2018-04-15T07:15:12.051Z,9.26
2018-04-15T07:16:21.172Z,9.24
2018-04-15T07:17:30.159Z,9.29
2018-04-15T07:18:38.987Z,9.35
2018-04-15T07:19:48.099Z,9.24
2018-04-15T07:20:56.934Z,9.28
2018-04-15T07:22:05.774Z,9.29
2018-04-15T07:23:15.172Z,9.31
2018-04-15T07:24:24.006Z,9.35
2018-04-15T07:25:32.840Z,9.36
2018-04-15T07:26:41.671Z,9.35
2018-04-15T07:27:50.778Z,9.39
2018-04-15T07:28:59.660Z,9.35
2018-04-15T07:30:08.496Z,9.4
2018-04-15T07:31:17.606Z,9.36
2018-04-15T07:32:26.712Z,9.38
2018-04-15T07:33:35.543Z,9.4
2018-04-15T07:34:44.625Z,9.38
2018-04-15T07:35:53.456Z,9.42
2018-04-15T07:37:02.288Z,9.48
2018-04-15T07:38:11.120Z,9.43
2018-04-15T07:39:19.948Z,9.46
2018-04-15T07:40:29.105Z,9.56
2018-04-15T07:41:37.939Z,9.5
2018-04-15T07:42:46.769Z,9.5
2018-04-15T07:43:55.603Z,9.53
2018-04-15T07:45:04.437Z,9.48
2018-04-15T07:46:13.420Z,9.57
2018-04-15T07:47:22.541Z,9.47
2018-04-15T07:48:31.441Z,9.43
2018-04-15T07:49:40.274Z,9.46
2018-04-15T07:50:49.110Z,9.47
2018-04-15T07:51:57.942Z,9.53
2018-04-15T07:53:07.053Z,9.56
2018-04-15T07:54:16.175Z,9.5
2018-04-15T07:55:25.288Z,9.6
2018-04-15T07:56:34.119Z,9.56
2018-04-15T07:57:42.965Z,9.47
2018-04-15T07:58:52.082Z,9.56
2018-04-15T08:00:00.914Z,9.4
2018-04-15T08:01:10.026Z,9.4
2018-04-15T08:02:19.470Z,9.47
2018-04-15T08:03:28.253Z,9.46
2018-04-15T08:04:37.090Z,9.42
2018-04-15T08:05:45.917Z,9.43
2018-04-15T08:06:54.751Z,9.46
2018-04-15T08:08:03.865Z,9.4
2018-04-15T08:09:12.695Z,9.51
2018-04-15T08:10:21.528Z,9.4
2018-04-15T08:11:30.364Z,9.51
2018-04-15T08:12:39.466Z,9.43
2018-04-15T08:13:48.296Z,9.4
2018-04-15T08:14:57.130Z,9.47
2018-04-15T08:16:06.239Z,9.42
2018-04-15T08:17:15.961Z,9.43
2018-04-15T08:18:24.796Z,9.48
2018-04-15T08:19:34.455Z,9.36
2018-04-15T08:20:43.288Z,9.46
2018-04-15T08:21:52.394Z,9.39
2018-04-15T08:23:01.537Z,9.46
2018-04-15T08:24:10.366Z,9.56
2018-04-15T08:25:19.470Z,9.56
2018-04-15T08:26:28.586Z,9.48
2018-04-15T08:27:37.425Z,9.66
2018-04-15T08:28:46.693Z,9.54
2018-04-15T08:29:55.529Z,9.54
2018-04-15T08:31:04.361Z,9.53
2018-04-15T08:32:13.193Z,9.5
2018-04-15T08:33:22.024Z,9.57
2018-04-15T08:34:30.956Z,9.65
2018-04-15T08:35:39.788Z,9.66
2018-04-15T08:36:48.908Z,9.69
2018-04-15T08:37:57.741Z,9.68
2018-04-15T08:39:06.576Z,9.64
2018-04-15T08:40:15.409Z,9.58
2018-04-15T08:41:24.241Z,9.66
2018-04-15T08:42:33.074Z,9.69
2018-04-15T08:43:41.959Z,9.71
2018-04-15T08:44:51.065Z,9.69
2018-04-15T08:46:00.200Z,9.68
2018-04-15T08:47:09.029Z,9.64
2018-04-15T08:48:17.859Z,9.72
2018-04-15T08:49:26.692Z,9.68
2018-04-15T08:50:35.529Z,9.68
2018-04-15T08:51:44.663Z,9.71
2018-04-15T08:52:53.496Z,9.75
2018-04-15T08:54:02.328Z,9.76
2018-04-15T08:55:11.165Z,9.76
2018-04-15T08:56:20.270Z,9.83
2018-04-15T08:57:29.103Z,9.91
2018-04-15T08:58:38.494Z,9.91
2018-04-15T08:59:47.327Z,9.89
2018-04-15T09:00:56.437Z,9.84
2018-04-15T09:02:05.275Z,9.81
2018-04-15T09:03:14.105Z,9.87
2018-04-15T09:04:22.938Z,9.83
2018-04-15T09:05:31.770Z,9.89
2018-04-15T09:06:40.654Z,9.83
2018-04-15T09:07:49.488Z,9.86
2018-04-15T09:08:58.426Z,9.94
2018-04-15T09:10:07.256Z,9.89
2018-04-15T09:11:16.090Z,9.79
2018-04-15T09:12:25.207Z,9.94
2018-04-15T09:13:34.593Z,9.96
2018-04-15T09:14:44.001Z,9.97
2018-04-15T09:15:52.836Z,9.93
2018-04-15T09:17:01.669Z,9.9
2018-04-15T09:18:10.805Z,9.79
2018-04-15T09:19:19.994Z,9.91
2018-04-15T09:20:29.031Z,9.86
2018-04-15T09:21:37.863Z,9.89
2018-04-15T09:22:46.749Z,9.99
2018-04-15T09:23:55.583Z,9.96
2018-04-15T09:25:04.413Z,10.02
2018-04-15T09:26:13.245Z,10.01
2018-04-15T09:27:22.089Z,10.11
2018-04-15T09:28:31.210Z,10.11
2018-04-15T09:29:40.043Z,10.07
2018-04-15T09:30:48.880Z,10.18
2018-04-15T09:31:57.771Z,10.15
2018-04-15T09:33:06.606Z,10.2
2018-04-15T09:34:15.439Z,10.23
2018-04-15T09:35:24.271Z,10.34
2018-04-15T09:36:33.113Z,10.32
2018-04-15T09:37:41.991Z,10.33
2018-04-15T09:38:50.826Z,10.25
2018-04-15T09:39:59.935Z,10.23
2018-04-15T09:41:09.753Z,10.27
2018-04-15T09:42:18.578Z,10.29
2018-04-15T09:43:27.780Z,10.4
2018-04-15T09:44:36.617Z,10.44
2018-04-15T09:45:45.459Z,10.48
2018-04-15T09:46:54.566Z,10.48
2018-04-15T09:48:03.397Z,10.56
2018-04-15T09:49:12.377Z,10.53
2018-04-15T09:50:21.220Z,10.4
2018-04-15T09:51:30.327Z,10.44
2018-04-15T09:52:39.504Z,10.42
2018-04-15T09:53:48.333Z,10.53
2018-04-15T09:54:57.589Z,10.42
2018-04-15T09:56:06.424Z,10.48
2018-04-15T09:57:15.530Z,10.53
2018-04-15T09:58:24.368Z,10.59
2018-04-15T09:59:33.206Z,10.64
2018-04-15T10:00:42.040Z,10.55
2018-04-15T10:01:50.902Z,10.41
2018-04-15T10:03:00.017Z,10.55
2018-04-15T10:04:08.850Z,10.55
2018-04-15T10:05:17.687Z,10.56
2018-04-15T10:06:26.520Z,10.51
2018-04-15T10:07:35.351Z,10.66
2018-04-15T10:08:44.187Z,10.73
2018-04-15T10:09:53.021Z,10.7
2018-04-15T10:11:02.142Z,10.74
2018-04-15T10:12:11.253Z,10.76
2018-04-15T10:13:20.364Z,10.85
2018-04-15T10:14:29.197Z,10.74
2018-04-15T10:15:38.315Z,10.66
2018-04-15T10:16:47.151Z,10.71
2018-04-15T10:17:56.020Z,10.78
2018-04-15T10:19:04.854Z,10.76
2018-04-15T10:20:13.688Z,10.84
2018-04-15T10:21:22.557Z,10.84
2018-04-15T10:22:31.429Z,10.84
2018-04-15T10:23:40.412Z,10.88
2018-04-15T10:24:49.522Z,10.86
2018-04-15T10:25:58.354Z,10.88
2018-04-15T10:27:07.712Z,10.92
2018-04-15T10:28:16.568Z,11.03
2018-04-15T10:29:25.930Z,10.96
2018-04-15T10:30:35.042Z,10.88
2018-04-15T10:31:44.428Z,10.89
2018-04-15T10:32:53.260Z,10.92
2018-04-15T10:34:02.093Z,10.89
2018-04-15T10:35:11.080Z,10.94
2018-04-15T10:36:20.461Z,10.91
2018-04-15T10:37:29.576Z,10.92
2018-04-15T10:38:38.684Z,10.94
2018-04-15T10:39:47.810Z,11.07
2018-04-15T10:40:56.814Z,11
2018-04-15T10:42:05.920Z,11.11
2018-04-15T10:43:15.023Z,11.17
2018-04-15T10:44:23.855Z,11.06
2018-04-15T10:45:32.962Z,11.07
2018-04-15T10:46:41.797Z,11.06
2018-04-15T10:47:50.630Z,11
2018-04-15T10:48:59.737Z,11.03
2018-04-15T10:50:08.854Z,11
2018-04-15T10:51:17.680Z,11.02
2018-04-15T10:52:27.366Z,10.96
2018-04-15T10:53:36.201Z,11.1
2018-04-15T10:54:45.038Z,11.07
2018-04-15T10:55:53.867Z,11.11
2018-04-15T10:57:02.707Z,11.1
2018-04-15T10:58:11.642Z,11.21
2018-04-15T10:59:20.476Z,11.27
2018-04-15T11:00:29.325Z,11.28
2018-04-15T11:01:38.161Z,11.28
2018-04-15T11:02:46.997Z,11.33
2018-04-15T11:03:56.407Z,11.39
2018-04-15T11:05:05.239Z,11.4
2018-04-15T11:06:14.073Z,11.42
2018-04-15T11:07:23.193Z,11.51
2018-04-15T11:08:32.301Z,11.47
2018-04-15T11:09:41.561Z,11.49
2018-04-15T11:10:50.400Z,11.39
2018-04-15T11:11:59.785Z,11.47
2018-04-15T11:13:08.905Z,11.51
2018-04-15T11:14:17.744Z,11.54
2018-04-15T11:15:26.903Z,11.52
2018-04-15T11:16:35.738Z,11.61
2018-04-15T11:17:44.569Z,11.6
2018-04-15T11:18:53.404Z,11.69
2018-04-15T11:20:02.312Z,11.6
2018-04-15T11:21:11.780Z,11.55
2018-04-15T11:22:20.613Z,11.69
2018-04-15T11:23:29.449Z,11.76
2018-04-15T11:24:38.891Z,11.79
2018-04-15T11:25:47.724Z,11.75
2018-04-15T11:26:56.558Z,11.78
2018-04-15T11:28:05.392Z,11.8
2018-04-15T11:29:14.226Z,11.86
2018-04-15T11:30:23.061Z,11.94
2018-04-15T11:31:31.892Z,11.91
2018-04-15T11:32:40.777Z,12.12
2018-04-15T11:33:49.613Z,12.1
2018-04-15T11:34:58.448Z,12.31
2018-04-15T11:36:07.279Z,12.31
2018-04-15T11:37:16.113Z,12.39
2018-04-15T11:38:25.155Z,12.42
2018-04-15T11:39:34.320Z,12.41
2018-04-15T11:40:43.150Z,12.42
2018-04-15T11:41:51.986Z,12.49
2018-04-15T11:43:00.821Z,12.59
2018-04-15T11:44:10.082Z,12.53
2018-04-15T11:45:19.195Z,12.54
2018-04-15T11:46:28.305Z,12.7
2018-04-15T11:47:37.140Z,12.7
2018-04-15T11:48:45.974Z,12.74
2018-04-15T11:49:55.409Z,12.83
2018-04-15T11:51:04.543Z,13.01
2018-04-15T11:52:13.940Z,13.15
2018-04-15T11:53:23.052Z,13.23
2018-04-15T11:54:31.887Z,13.28
2018-04-15T11:55:40.721Z,13.17
2018-04-15T11:56:49.558Z,13.26
2018-04-15T11:57:58.394Z,13.28
2018-04-15T11:59:07.230Z,13.28
2018-04-15T12:00:16.067Z,13.32
2018-04-15T12:01:24.907Z,13.48
2018-04-15T12:02:34.016Z,13.49
2018-04-15T12:03:43.144Z,13.71
2018-04-15T12:04:52.352Z,13.81
2018-04-15T12:06:01.517Z,13.81
2018-04-15T12:07:10.635Z,13.99
2018-04-15T12:08:19.473Z,14.02
2018-04-15T12:09:28.314Z,14.15
2018-04-15T12:10:37.154Z,14.22
2018-04-15T12:11:46.480Z,14.28
2018-04-15T12:12:55.560Z,14.33
2018-04-15T12:14:04.676Z,14.35
2018-04-15T12:15:13.516Z,14.32
2018-04-15T12:16:22.635Z,14.2
2018-04-15T12:17:31.499Z,14.14
2018-04-15T12:18:40.789Z,14.14
2018-04-15T12:19:49.626Z,14.21
2018-04-15T12:20:58.751Z,14.29
2018-04-15T12:22:07.912Z,14.28
2018-04-15T12:23:17.024Z,14.39
2018-04-15T12:24:26.125Z,14.43
2018-04-15T12:25:35.475Z,14.52
2018-04-15T12:26:44.382Z,14.77
2018-04-15T12:27:53.156Z,14.98
2018-04-15T12:29:02.269Z,15.25
2018-04-15T12:30:11.551Z,15.35
2018-04-15T12:31:20.393Z,15.49
2018-04-15T12:32:29.237Z,15.67
2018-04-15T12:33:38.411Z,15.68
2018-04-15T12:34:47.501Z,15.71
2018-04-15T12:35:56.392Z,15.62
2018-04-15T12:37:05.508Z,15.5
2018-04-15T12:38:14.354Z,15.54
2018-04-15T12:39:23.195Z,15.69
2018-04-15T12:40:32.037Z,15.69
2018-04-15T12:41:41.760Z,15.69
2018-04-15T12:42:50.882Z,15.78
2018-04-15T12:43:59.720Z,15.82
2018-04-15T12:45:08.840Z,15.87
2018-04-15T12:46:17.693Z,15.92
2018-04-15T12:47:26.859Z,16.05
2018-04-15T12:48:35.701Z,16.02
2018-04-15T12:49:44.543Z,15.8
2018-04-15T12:50:53.623Z,15.75
2018-04-15T12:52:02.741Z,15.87
2018-04-15T12:53:11.698Z,16
2018-04-15T12:54:20.618Z,16.17
2018-04-15T12:55:29.462Z,16.38
2018-04-15T12:56:38.303Z,16.46
2018-04-15T12:57:47.428Z,16.57
2018-04-15T12:58:56.656Z,16.46
2018-04-15T13:00:05.499Z,16.6
2018-04-15T13:01:14.343Z,16.76
2018-04-15T13:02:23.186Z,16.93
2018-04-15T13:03:32.030Z,16.96
2018-04-15T13:04:40.882Z,16.88
2018-04-15T13:05:49.731Z,17.03
2018-04-15T13:06:58.848Z,17.14
2018-04-15T13:08:07.690Z,17.16
2018-04-15T13:09:16.534Z,16.97
2018-04-15T13:10:25.386Z,16.76
2018-04-15T13:11:34.224Z,16.75
2018-04-15T13:12:43.069Z,16.79
2018-04-15T13:13:51.911Z,16.88
2018-04-15T13:15:00.753Z,16.94
2018-04-15T13:16:09.600Z,17.12
2018-04-15T13:17:18.733Z,17.07
2018-04-15T13:18:27.573Z,17.16
2018-04-15T13:19:36.412Z,17.3
2018-04-15T13:20:45.257Z,17.19
2018-04-15T13:21:54.249Z,17.18
2018-04-15T13:23:03.095Z,17.23
2018-04-15T13:24:11.936Z,17.19
2018-04-15T13:25:20.781Z,17.23
2018-04-15T13:26:29.895Z,17.52
2018-04-15T13:27:38.787Z,17.63
2018-04-15T13:28:47.673Z,17.77
2018-04-15T13:29:56.491Z,17.77
2018-04-15T13:31:05.347Z,17.87
2018-04-15T13:32:14.200Z,17.78
2018-04-15T13:33:23.426Z,17.77
2018-04-15T13:34:32.319Z,17.66
2018-04-15T13:35:41.163Z,17.59
2018-04-15T13:36:50.012Z,17.51
2018-04-15T13:37:58.858Z,17.44
2018-04-15T13:39:07.802Z,17.37
2018-04-15T13:40:16.945Z,17.46
2018-04-15T13:41:26.354Z,17.55
2018-04-15T13:42:35.202Z,17.68
2018-04-15T13:43:44.049Z,17.75
2018-04-15T13:44:53.044Z,17.72
2018-04-15T13:46:01.884Z,17.64
2018-04-15T13:47:10.725Z,17.64
2018-04-15T13:48:19.571Z,17.78
2018-04-15T13:49:28.418Z,18.03
2018-04-15T13:50:37.510Z,18.14
2018-04-15T13:51:46.351Z,18.15
2018-04-15T13:52:55.196Z,18.25
2018-04-15T13:54:04.315Z,18.26
2018-04-15T13:55:13.208Z,18.36
2018-04-15T13:56:22.208Z,18.44
2018-04-15T13:57:31.055Z,18.41
2018-04-15T13:58:39.901Z,18.42
2018-04-15T13:59:48.742Z,18.39
2018-04-15T14:00:57.588Z,18.41
2018-04-15T14:02:06.807Z,18.15
2018-04-15T14:03:15.652Z,18.11
2018-04-15T14:04:24.776Z,18.23
2018-04-15T14:05:33.623Z,18.3
2018-04-15T14:06:42.486Z,18.44
2018-04-15T14:07:51.310Z,18.39
2018-04-15T14:09:00.153Z,18.3
2018-04-15T14:10:08.995Z,18.23
2018-04-15T14:11:17.839Z,18.26
2018-04-15T14:12:26.687Z,18.37
2018-04-15T14:13:35.629Z,18.6
2018-04-15T14:14:44.748Z,18.52
2018-04-15T14:15:53.594Z,18.52
2018-04-15T14:17:02.438Z,18.57
2018-04-15T14:18:11.280Z,18.55
2018-04-15T14:19:20.456Z,18.54
2018-04-15T14:20:29.580Z,18.39
2018-04-15T14:21:38.426Z,18.47
2018-04-15T14:22:47.837Z,18.39
2018-04-15T14:23:56.677Z,18.25
2018-04-15T14:25:05.774Z,18.45
2018-04-15T14:26:15.178Z,18.41
2018-04-15T14:27:24.315Z,18.3
2018-04-15T14:28:33.709Z,17.97
2018-04-15T14:29:42.555Z,17.97
2018-04-15T14:30:51.647Z,17.77
2018-04-15T14:32:00.489Z,17.58
2018-04-15T14:33:09.331Z,17.56
2018-04-15T14:34:18.450Z,17.44
2018-04-15T14:35:27.292Z,17.36
2018-04-15T14:36:36.231Z,17.28
2018-04-15T14:37:45.073Z,17.26
2018-04-15T14:38:53.915Z,17.19
2018-04-15T14:40:02.756Z,17.15
2018-04-15T14:41:11.595Z,17.23
2018-04-15T14:42:20.872Z,17.14
2018-04-15T14:43:30.007Z,17.19
2018-04-15T14:44:38.860Z,17.16
2018-04-15T14:45:47.691Z,17.08
2018-04-15T14:46:56.531Z,17.06
2018-04-15T14:48:05.522Z,17.01
2018-04-15T14:49:14.360Z,17.07
2018-04-15T14:50:23.484Z,17.3
2018-04-15T14:51:32.597Z,17.34
2018-04-15T14:52:41.438Z,17.26
2018-04-15T14:53:50.337Z,17.21
2018-04-15T14:54:59.168Z,17.38
2018-04-15T14:56:08.006Z,17.4
2018-04-15T14:57:16.852Z,17.54
2018-04-15T14:58:25.967Z,17.66
2018-04-15T14:59:34.810Z,17.62
2018-04-15T15:00:43.650Z,17.75
2018-04-15T15:01:52.494Z,17.95
2018-04-15T15:03:01.336Z,17.75
2018-04-15T15:04:10.452Z,17.75
2018-04-15T15:05:19.443Z,18
2018-04-15T15:06:28.559Z,18.1
2018-04-15T15:07:37.400Z,18.23
2018-04-15T15:08:46.245Z,18.18
2018-04-15T15:09:55.087Z,18.2